createdAt,value
2017-08-26T00:00:02.009Z,8.05
2017-08-26T00:02:34.395Z,7.15
2017-08-26T00:05:01.050Z,5.55
2017-08-26T00:07:27.707Z,9.45
2017-08-26T00:09:54.385Z,5.97
2017-08-26T00:12:21.146Z,10.13
2017-08-26T00:14:47.898Z,7.28
2017-08-26T00:17:14.568Z,6.15
2017-08-26T00:19:41.236Z,11.40
2017-08-26T00:22:07.915Z,7.93
2017-08-26T00:24:34.599Z,9.98
2017-08-26T00:27:01.299Z,14.40
2017-08-26T00:29:28.027Z,10.18
2017-08-26T00:31:54.770Z,10.30
2017-08-26T00:34:21.410Z,8.85
2017-08-26T00:36:48.158Z,5.90
2017-08-26T00:39:14.820Z,7.93
2017-08-26T00:41:41.524Z,9.98
2017-08-26T00:44:08.199Z,10.50
2017-08-26T00:46:34.887Z,10.43
2017-08-26T00:49:01.539Z,5.47
2017-08-26T00:51:28.194Z,6.65
2017-08-26T00:53:54.878Z,5.97
2017-08-26T00:56:21.525Z,11.98
2017-08-26T00:58:48.182Z,7.97
2017-08-26T01:01:14.849Z,9.30
2017-08-26T01:03:41.492Z,9.65
2017-08-26T01:06:08.155Z,10.57
2017-08-26T01:08:34.830Z,9.93
2017-08-26T01:11:01.519Z,8.32
2017-08-26T01:13:28.264Z,10.20
2017-08-26T01:15:54.984Z,8.48
2017-08-26T01:18:21.625Z,8.68
2017-08-26T01:20:48.370Z,8.27
2017-08-26T01:23:15.107Z,10.40
2017-08-26T01:25:41.829Z,9.10
2017-08-26T01:28:08.493Z,10.13
2017-08-26T01:30:35.159Z,9.05
2017-08-26T01:33:01.887Z,9.82
2017-08-26T01:35:28.548Z,8.48
2017-08-26T01:37:55.238Z,17.37
2017-08-26T01:40:21.988Z,14.75
2017-08-26T01:42:48.651Z,8.07
2017-08-26T01:45:15.388Z,10.80
2017-08-26T01:47:42.051Z,9.18
2017-08-26T01:50:08.755Z,10.55
2017-08-26T01:52:35.419Z,8.23
2017-08-26T01:55:02.068Z,9.23
2017-08-26T01:57:28.768Z,19.62
2017-08-26T01:59:55.839Z,8.95
2017-08-26T02:02:22.556Z,9.60
2017-08-26T02:04:49.219Z,10.02
2017-08-26T02:07:15.959Z,8.07
2017-08-26T02:09:42.612Z,10.25
2017-08-26T02:12:09.339Z,9.77
2017-08-26T02:14:36.023Z,9.48
2017-08-26T02:17:02.682Z,11.05
2017-08-26T02:19:29.444Z,12.73
2017-08-26T02:21:56.189Z,9.40
2017-08-26T02:24:22.861Z,9.82
2017-08-26T02:26:49.570Z,11.25
2017-08-26T02:29:16.240Z,10.65
2017-08-26T02:31:42.962Z,11.23
2017-08-26T02:34:09.635Z,13.90
2017-08-26T02:36:36.347Z,11.43
2017-08-26T02:39:03.011Z,14.43
2017-08-26T02:41:29.708Z,12.35
2017-08-26T02:43:56.380Z,13.07
2017-08-26T02:46:23.055Z,12.10
2017-08-26T02:48:49.705Z,12.60
2017-08-26T02:51:16.395Z,11.73
2017-08-26T02:53:43.044Z,12.90
2017-08-26T02:56:09.688Z,13.18
2017-08-26T02:58:36.397Z,14.15
2017-08-26T03:01:03.129Z,11.88
2017-08-26T03:03:29.869Z,11.50
2017-08-26T03:05:56.716Z,12.00
2017-08-26T03:08:23.470Z,11.60
2017-08-26T03:10:50.131Z,13.52
2017-08-26T03:13:17.048Z,11.18
2017-08-26T03:15:43.798Z,13.95
2017-08-26T03:18:10.462Z,11.73
2017-08-26T03:20:37.144Z,13.90
2017-08-26T03:23:03.819Z,16.02
2017-08-26T03:25:30.550Z,10.05
2017-08-26T03:27:57.225Z,11.18
2017-08-26T03:30:23.877Z,10.93
2017-08-26T03:32:50.542Z,10.57
2017-08-26T03:35:17.622Z,8.85
2017-08-26T03:37:44.373Z,9.02
2017-08-26T03:40:11.039Z,11.30
2017-08-26T03:42:37.719Z,9.40
2017-08-26T03:45:04.373Z,9.70
2017-08-26T03:47:31.124Z,11.68
2017-08-26T03:49:57.871Z,12.55
2017-08-26T03:52:24.535Z,10.05
2017-08-26T03:54:51.188Z,11.10
2017-08-26T03:57:17.870Z,9.93
2017-08-26T03:59:44.617Z,9.88
2017-08-26T04:02:11.356Z,9.73
2017-08-26T04:04:38.418Z,11.82
2017-08-26T04:07:05.180Z,10.85
2017-08-26T04:09:31.838Z,9.43
2017-08-26T04:11:58.504Z,10.77
2017-08-26T04:14:25.164Z,12.02
2017-08-26T04:16:51.809Z,13.02
2017-08-26T04:19:18.499Z,12.27
2017-08-26T04:21:45.184Z,15.10
2017-08-26T04:24:11.860Z,14.68
2017-08-26T04:26:38.532Z,14.10
2017-08-26T04:29:05.180Z,13.90
2017-08-26T04:31:32.175Z,11.75
2017-08-26T04:33:58.883Z,16.48
2017-08-26T04:36:25.848Z,12.48
2017-08-26T04:38:52.589Z,21.15
2017-08-26T04:41:19.640Z,13.50
2017-08-26T04:43:46.379Z,14.85
2017-08-26T04:46:15.988Z,13.88
2017-08-26T04:48:42.934Z,17.80
2017-08-26T04:51:09.601Z,12.70
2017-08-26T04:53:36.261Z,15.48
2017-08-26T04:56:03.095Z,13.70
2017-08-26T04:58:30.002Z,18.15
2017-08-26T05:00:56.737Z,13.77
2017-08-26T05:03:23.524Z,16.52
2017-08-26T05:05:51.508Z,14.75
2017-08-26T05:08:18.462Z,13.57
2017-08-26T05:10:45.251Z,12.13
2017-08-26T05:13:11.915Z,13.73
2017-08-26T05:15:38.932Z,20.62
2017-08-26T05:18:06.121Z,13.95
2017-08-26T05:20:36.044Z,18.20
2017-08-26T05:23:02.766Z,16.02
2017-08-26T05:25:29.490Z,14.60
2017-08-26T05:27:56.311Z,15.00
2017-08-26T05:30:22.969Z,16.08
2017-08-26T05:32:49.921Z,18.23
2017-08-26T05:35:16.960Z,22.13
2017-08-26T05:37:43.697Z,18.90
2017-08-26T05:40:10.958Z,17.65
2017-08-26T05:42:37.936Z,19.62
2017-08-26T05:45:04.675Z,17.60
2017-08-26T05:47:31.733Z,17.02
2017-08-26T05:49:58.409Z,20.27
2017-08-26T05:52:25.183Z,14.48
2017-08-26T05:54:51.861Z,14.73
2017-08-26T05:57:19.887Z,14.82
2017-08-26T05:59:47.242Z,16.00
2017-08-26T06:02:13.961Z,14.25
2017-08-26T06:04:41.734Z,16.70
2017-08-26T06:07:08.540Z,17.73
2017-08-26T06:09:35.338Z,13.43
2017-08-26T06:12:02.087Z,14.20
2017-08-26T06:14:29.225Z,13.98
2017-08-26T06:16:56.480Z,15.25
2017-08-26T06:19:23.350Z,19.10
2017-08-26T06:21:50.063Z,16.25
2017-08-26T06:24:17.814Z,16.80
2017-08-26T06:26:44.481Z,21.12
2017-08-26T06:29:11.200Z,19.42
2017-08-26T06:31:39.017Z,16.55
2017-08-26T06:34:06.129Z,16.77
2017-08-26T06:36:32.839Z,19.45
2017-08-26T06:38:59.600Z,16.77
2017-08-26T06:41:26.346Z,17.45
2017-08-26T06:43:53.006Z,15.73
2017-08-26T06:46:19.694Z,15.40
2017-08-26T06:48:46.349Z,14.60
2017-08-26T06:51:12.998Z,16.50
2017-08-26T06:53:39.673Z,16.00
2017-08-26T06:56:06.380Z,15.48
2017-08-26T06:58:33.139Z,17.60
2017-08-26T07:00:59.878Z,16.42
2017-08-26T07:03:26.618Z,18.37
2017-08-26T07:05:53.268Z,15.88
2017-08-26T07:08:20.003Z,15.55
2017-08-26T07:10:46.733Z,16.02
2017-08-26T07:13:13.467Z,15.65
2017-08-26T07:15:40.162Z,15.18
2017-08-26T07:18:06.839Z,13.52
2017-08-26T07:20:33.487Z,13.32
2017-08-26T07:23:00.161Z,13.77
2017-08-26T07:25:26.810Z,13.23
2017-08-26T07:27:53.468Z,13.50
2017-08-26T07:30:20.140Z,14.45
2017-08-26T07:32:46.789Z,13.52
2017-08-26T07:35:13.451Z,11.50
2017-08-26T07:37:40.128Z,14.10
2017-08-26T07:40:06.799Z,12.40
2017-08-26T07:42:33.454Z,12.40
2017-08-26T07:45:00.138Z,12.68
2017-08-26T07:47:26.824Z,11.45
2017-08-26T07:49:53.490Z,12.07
2017-08-26T07:52:20.223Z,11.40
2017-08-26T07:54:46.954Z,12.55
2017-08-26T07:57:13.623Z,11.45
2017-08-26T07:59:40.292Z,12.13
2017-08-26T08:02:06.936Z,10.25
2017-08-26T08:04:33.599Z,10.50
2017-08-26T08:07:00.279Z,10.25
2017-08-26T08:09:26.924Z,10.38
2017-08-26T08:11:53.643Z,8.25
2017-08-26T08:14:20.383Z,6.87
2017-08-26T08:16:47.140Z,7.72
2017-08-26T08:19:13.785Z,12.88
2017-08-26T08:21:40.466Z,8.93
2017-08-26T08:24:07.127Z,8.32
2017-08-26T08:26:33.835Z,7.32
2017-08-26T08:29:00.505Z,7.75
2017-08-26T08:31:27.154Z,7.43
2017-08-26T08:33:53.906Z,7.95
2017-08-26T08:36:20.591Z,14.60
2017-08-26T08:38:47.255Z,10.00
2017-08-26T08:41:14.031Z,6.40
2017-08-26T08:43:40.714Z,7.55
2017-08-26T08:46:07.398Z,6.82
2017-08-26T08:48:34.151Z,6.53
2017-08-26T08:51:00.838Z,7.75
2017-08-26T08:53:27.489Z,9.55
2017-08-26T08:55:54.132Z,8.90
2017-08-26T08:58:21.417Z,7.60
2017-08-26T09:00:48.056Z,6.82
2017-08-26T09:03:14.803Z,8.55
2017-08-26T09:05:41.484Z,6.60
2017-08-26T09:08:08.148Z,7.55
2017-08-26T09:10:34.908Z,6.50
2017-08-26T09:13:01.582Z,6.87
2017-08-26T09:15:28.221Z,7.32
2017-08-26T09:17:54.864Z,7.90
2017-08-26T09:20:21.587Z,8.68
2017-08-26T09:22:48.314Z,8.55
2017-08-26T09:25:15.247Z,10.57
2017-08-26T09:27:41.920Z,10.27
2017-08-26T09:30:08.587Z,10.52
2017-08-26T09:32:35.286Z,8.18
2017-08-26T09:35:02.035Z,8.52
2017-08-26T09:37:28.756Z,8.15
2017-08-26T09:39:55.432Z,8.35
2017-08-26T09:42:22.139Z,8.80
2017-08-26T09:44:48.790Z,8.30
2017-08-26T09:47:15.534Z,9.48
2017-08-26T09:49:42.204Z,10.90
2017-08-26T09:52:08.884Z,9.52
2017-08-26T09:54:35.547Z,11.55
2017-08-26T09:57:02.285Z,8.90
2017-08-26T09:59:29.026Z,9.80
2017-08-26T10:01:55.774Z,8.80
2017-08-26T10:04:22.518Z,9.45
2017-08-26T10:06:49.185Z,10.38
2017-08-26T10:09:15.849Z,10.05
2017-08-26T10:11:42.564Z,8.93
2017-08-26T10:14:09.231Z,8.18
2017-08-26T10:16:35.892Z,12.25
2017-08-26T10:19:02.565Z,7.55
2017-08-26T10:21:29.306Z,7.95
2017-08-26T10:23:55.979Z,8.82
2017-08-26T10:26:22.652Z,8.63
2017-08-26T10:28:49.426Z,12.68
2017-08-26T10:31:16.091Z,8.25
2017-08-26T10:33:42.772Z,7.65
2017-08-26T10:36:09.435Z,8.65
2017-08-26T10:38:36.099Z,7.40
2017-08-26T10:41:02.794Z,9.45
2017-08-26T10:43:29.463Z,7.85
2017-08-26T10:45:56.125Z,8.23
2017-08-26T10:48:22.828Z,7.30
2017-08-26T10:50:49.476Z,8.38
2017-08-26T10:53:16.705Z,7.20
2017-08-26T10:55:43.407Z,7.93
2017-08-26T10:58:10.056Z,9.63
2017-08-26T11:00:36.844Z,9.63
2017-08-26T11:03:03.508Z,8.20
2017-08-26T11:05:30.239Z,6.82
2017-08-26T11:07:56.908Z,12.02
2017-08-26T11:10:23.589Z,8.38
2017-08-26T11:12:50.259Z,7.12
2017-08-26T11:15:16.921Z,10.00
2017-08-26T11:17:43.620Z,7.95
2017-08-26T11:20:10.368Z,7.65
2017-08-26T11:22:37.084Z,8.55
2017-08-26T11:25:03.778Z,7.87
2017-08-26T11:27:30.500Z,7.50
2017-08-26T11:29:57.230Z,8.45
2017-08-26T11:32:23.987Z,7.78
2017-08-26T11:34:50.656Z,7.57
2017-08-26T11:37:17.326Z,7.50
2017-08-26T11:39:44.016Z,7.32
2017-08-26T11:42:10.750Z,8.85
2017-08-26T11:44:37.489Z,8.87
2017-08-26T11:47:04.184Z,7.32
2017-08-26T11:49:30.825Z,7.37
2017-08-26T11:51:57.473Z,9.07
2017-08-26T11:54:24.152Z,6.63
2017-08-26T11:56:50.887Z,6.97
2017-08-26T11:59:17.634Z,10.40
2017-08-26T12:01:44.326Z,6.87
2017-08-26T12:04:10.983Z,7.03
2017-08-26T12:06:37.737Z,6.53
2017-08-26T12:09:04.491Z,6.33
2017-08-26T12:11:31.216Z,6.70
2017-08-26T12:13:57.877Z,8.47
2017-08-26T12:16:24.606Z,5.60
2017-08-26T12:18:51.355Z,7.30
2017-08-26T12:21:18.043Z,9.20
2017-08-26T12:23:44.727Z,7.23
2017-08-26T12:26:11.382Z,6.37
2017-08-26T12:28:38.092Z,5.97
2017-08-26T12:31:04.778Z,6.90
2017-08-26T12:33:31.490Z,6.60
2017-08-26T12:35:58.151Z,6.60
2017-08-26T12:38:24.879Z,5.50
2017-08-26T12:40:51.524Z,7.07
2017-08-26T12:43:18.169Z,5.50
2017-08-26T12:45:44.850Z,5.20
2017-08-26T12:48:11.535Z,5.27
2017-08-26T12:50:38.182Z,5.17
2017-08-26T12:53:04.849Z,9.60
2017-08-26T12:55:31.513Z,7.10
2017-08-26T12:57:58.159Z,5.27
2017-08-26T13:00:24.824Z,4.13
2017-08-26T13:02:51.482Z,5.20
2017-08-26T13:05:18.210Z,10.90
2017-08-26T13:07:44.897Z,7.90
2017-08-26T13:10:11.558Z,8.63
2017-08-26T13:12:38.235Z,4.50
2017-08-26T13:15:04.928Z,6.10
2017-08-26T13:17:31.597Z,5.17
2017-08-26T13:19:58.242Z,4.23
2017-08-26T13:22:24.904Z,5.70
2017-08-26T13:24:51.540Z,5.00
2017-08-26T13:27:18.258Z,5.80
2017-08-26T13:29:45.007Z,4.93
2017-08-26T13:32:11.643Z,5.27
2017-08-26T13:34:38.284Z,5.20
2017-08-26T13:37:04.970Z,4.57
2017-08-26T13:39:31.627Z,6.97
2017-08-26T13:41:58.269Z,6.63
2017-08-26T13:44:24.932Z,9.30
2017-08-26T13:46:51.563Z,6.20
2017-08-26T13:49:18.200Z,5.30
2017-08-26T13:51:44.880Z,5.10
2017-08-26T13:54:11.528Z,6.93
2017-08-26T13:56:38.249Z,5.77
2017-08-26T13:59:04.951Z,5.20
2017-08-26T14:01:31.614Z,5.47
2017-08-26T14:03:58.370Z,5.80
2017-08-26T14:06:25.069Z,8.83
2017-08-26T14:08:51.747Z,9.50
2017-08-26T14:11:18.402Z,4.33
2017-08-26T14:13:45.123Z,5.50
2017-08-26T14:16:11.870Z,5.70
2017-08-26T14:18:38.512Z,4.30
2017-08-26T14:21:05.194Z,4.10
2017-08-26T14:23:31.851Z,8.13
2017-08-26T14:25:58.522Z,6.07
2017-08-26T14:28:25.206Z,4.87
2017-08-26T14:30:51.892Z,5.47
2017-08-26T14:33:18.638Z,5.30
2017-08-26T14:35:45.295Z,6.10
2017-08-26T14:38:11.935Z,4.43
2017-08-26T14:40:38.591Z,6.60
2017-08-26T14:43:05.271Z,5.07
2017-08-26T14:45:31.935Z,4.63
2017-08-26T14:47:58.578Z,8.27
2017-08-26T14:50:25.312Z,7.50
2017-08-26T14:52:52.052Z,5.60
2017-08-26T14:55:18.706Z,5.53
2017-08-26T14:57:45.394Z,4.20
2017-08-26T15:00:12.091Z,5.83
2017-08-26T15:02:38.833Z,4.30
2017-08-26T15:05:05.512Z,6.03
2017-08-26T15:07:32.211Z,6.63
2017-08-26T15:09:58.874Z,7.10
2017-08-26T15:12:25.561Z,8.23
2017-08-26T15:14:52.212Z,4.37
2017-08-26T15:17:18.871Z,7.93
2017-08-26T15:19:45.590Z,4.47
2017-08-26T15:22:12.340Z,5.33
2017-08-26T15:24:39.104Z,4.97
2017-08-26T15:27:05.776Z,5.13
2017-08-26T15:29:32.416Z,6.43
2017-08-26T15:31:59.093Z,4.33
2017-08-26T15:34:25.854Z,5.73
2017-08-26T15:36:52.580Z,9.13
2017-08-26T15:39:19.433Z,5.17
2017-08-26T15:41:46.100Z,7.10
2017-08-26T15:44:12.744Z,5.50
2017-08-26T15:46:39.383Z,5.43
2017-08-26T15:49:06.082Z,6.03
2017-08-26T15:51:32.720Z,4.80
2017-08-26T15:53:59.379Z,6.10
2017-08-26T15:56:26.059Z,6.80
2017-08-26T15:58:52.718Z,6.13
2017-08-26T16:01:19.395Z,6.00
2017-08-26T16:03:46.138Z,8.20
2017-08-26T16:06:12.883Z,5.70
2017-08-26T16:08:39.537Z,5.80
2017-08-26T16:11:06.264Z,5.10
2017-08-26T16:13:32.912Z,5.80
2017-08-26T16:15:59.552Z,7.10
2017-08-26T16:18:26.259Z,6.33
2017-08-26T16:20:53.019Z,7.07
2017-08-26T16:23:19.749Z,10.23
2017-08-26T16:25:46.417Z,7.10
2017-08-26T16:28:13.067Z,6.20
2017-08-26T16:30:39.703Z,6.73
2017-08-26T16:33:06.393Z,12.70
2017-08-26T16:35:33.043Z,7.67
2017-08-26T16:37:59.706Z,7.43
2017-08-26T16:40:26.372Z,11.00
2017-08-26T16:42:53.031Z,8.00
2017-08-26T16:45:19.700Z,8.63
2017-08-26T16:47:46.374Z,6.97
2017-08-26T16:50:13.090Z,9.37
2017-08-26T16:52:39.736Z,8.27
2017-08-26T16:55:06.403Z,7.60
2017-08-26T16:57:33.050Z,9.30
2017-08-26T16:59:59.705Z,7.70
2017-08-26T17:02:26.485Z,6.93
2017-08-26T17:04:53.128Z,11.03
2017-08-26T17:07:19.859Z,7.33
2017-08-26T17:09:46.524Z,8.10
2017-08-26T17:12:13.182Z,8.67
2017-08-26T17:14:39.896Z,8.33
2017-08-26T17:17:06.574Z,8.50
2017-08-26T17:19:33.265Z,10.73
2017-08-26T17:21:59.908Z,9.90
2017-08-26T17:24:26.659Z,10.33
2017-08-26T17:26:53.485Z,8.33
2017-08-26T17:29:20.141Z,13.87
2017-08-26T17:31:46.824Z,9.00
2017-08-26T17:34:13.495Z,9.00
2017-08-26T17:36:40.259Z,6.13
2017-08-26T17:39:06.988Z,10.50
2017-08-26T17:41:33.724Z,9.97
2017-08-26T17:44:00.383Z,8.77
2017-08-26T17:46:27.075Z,14.53
2017-08-26T17:48:53.739Z,31.73
2017-08-26T17:51:20.402Z,21.47
2017-08-26T17:53:47.072Z,10.27
2017-08-26T17:56:13.782Z,8.50
2017-08-26T17:58:40.433Z,22.37
2017-08-26T18:01:07.133Z,15.95
2017-08-26T18:03:33.790Z,15.02
2017-08-26T18:06:00.546Z,10.00
2017-08-26T18:08:27.238Z,10.68
2017-08-26T18:10:54.018Z,12.52
2017-08-26T18:13:20.765Z,14.85
2017-08-26T18:15:47.445Z,13.43
2017-08-26T18:18:14.100Z,20.42
2017-08-26T18:20:40.786Z,20.15
2017-08-26T18:23:07.531Z,15.20
2017-08-26T18:25:34.203Z,12.30
2017-08-26T18:28:00.872Z,12.80
2017-08-26T18:30:27.650Z,13.77
2017-08-26T18:32:54.395Z,15.27
2017-08-26T18:35:21.135Z,19.58
2017-08-26T18:37:47.813Z,16.65
2017-08-26T18:40:14.482Z,15.35
2017-08-26T18:42:41.159Z,17.45
2017-08-26T18:45:07.866Z,17.27
2017-08-26T18:47:34.642Z,15.07
2017-08-26T18:50:01.379Z,14.07
2017-08-26T18:52:28.075Z,14.07
2017-08-26T18:54:54.759Z,14.35
2017-08-26T18:57:21.427Z,13.23
2017-08-26T18:59:48.233Z,14.05
2017-08-26T19:02:14.969Z,13.55
2017-08-26T19:04:41.631Z,13.57
2017-08-26T19:07:08.355Z,14.18
2017-08-26T19:09:35.022Z,14.82
2017-08-26T19:12:01.699Z,13.35
2017-08-26T19:14:28.390Z,13.52
2017-08-26T19:16:55.105Z,14.85
2017-08-26T19:19:21.756Z,14.90
2017-08-26T19:21:48.445Z,14.93
2017-08-26T19:24:15.142Z,16.08
2017-08-26T19:26:41.887Z,14.87
2017-08-26T19:29:09.039Z,13.93
2017-08-26T19:31:35.974Z,15.43
2017-08-26T19:34:02.816Z,14.43
2017-08-26T19:36:32.366Z,14.65
2017-08-26T19:39:00.255Z,15.10
2017-08-26T19:41:28.429Z,17.40
2017-08-26T19:43:55.313Z,16.90
2017-08-26T19:46:21.996Z,16.58
2017-08-26T19:48:48.770Z,16.08
2017-08-26T19:51:15.535Z,16.65
2017-08-26T19:53:44.427Z,16.85
2017-08-26T19:56:11.113Z,17.77
2017-08-26T19:58:37.795Z,17.62
2017-08-26T20:01:04.459Z,17.10
2017-08-26T20:03:31.183Z,21.20
2017-08-26T20:05:57.920Z,18.77
2017-08-26T20:08:24.666Z,21.23
2017-08-26T20:10:51.419Z,18.33
2017-08-26T20:13:18.107Z,22.98
2017-08-26T20:15:44.768Z,24.80
2017-08-26T20:18:11.461Z,19.92
2017-08-26T20:20:38.178Z,18.00
2017-08-26T20:23:04.903Z,25.15
2017-08-26T20:25:31.666Z,17.23
2017-08-26T20:27:58.349Z,16.87
2017-08-26T20:30:25.019Z,16.20
2017-08-26T20:32:51.772Z,16.67
2017-08-26T20:35:18.468Z,16.95
2017-08-26T20:37:45.115Z,16.40
2017-08-26T20:40:11.793Z,16.87
2017-08-26T20:42:38.547Z,17.30
2017-08-26T20:45:05.214Z,15.50
2017-08-26T20:47:31.890Z,17.45
2017-08-26T20:49:58.582Z,19.80
2017-08-26T20:52:25.298Z,18.17
2017-08-26T20:54:51.948Z,18.55
2017-08-26T20:57:18.647Z,18.73
2017-08-26T20:59:45.304Z,18.27
2017-08-26T21:02:11.967Z,17.52
2017-08-26T21:04:38.640Z,17.23
2017-08-26T21:07:05.303Z,19.08
2017-08-26T21:09:31.987Z,19.33
2017-08-26T21:11:58.664Z,15.45
2017-08-26T21:14:25.352Z,16.87
2017-08-26T21:16:52.015Z,15.45
2017-08-26T21:19:18.742Z,17.00
2017-08-26T21:21:45.487Z,18.80
2017-08-26T21:24:12.155Z,16.83
2017-08-26T21:26:38.842Z,18.20
2017-08-26T21:29:05.498Z,17.30
2017-08-26T21:31:32.202Z,18.87
2017-08-26T21:33:58.898Z,17.40
2017-08-26T21:36:25.612Z,18.42
2017-08-26T21:38:52.371Z,16.35
2017-08-26T21:41:19.044Z,16.00
2017-08-26T21:43:45.696Z,17.70
2017-08-26T21:46:12.360Z,15.48
2017-08-26T21:48:39.033Z,16.33
2017-08-26T21:51:05.780Z,15.90
2017-08-26T21:53:32.428Z,17.42
2017-08-26T21:55:59.100Z,16.85
2017-08-26T21:58:25.786Z,18.12
2017-08-26T22:00:52.523Z,16.92
2017-08-26T22:03:19.275Z,22.73
2017-08-26T22:05:46.001Z,19.75
2017-08-26T22:08:12.653Z,19.58
2017-08-26T22:10:39.343Z,19.23
2017-08-26T22:13:06.017Z,18.10
2017-08-26T22:15:32.665Z,17.35
2017-08-26T22:17:59.352Z,17.35
2017-08-26T22:20:26.040Z,17.58
2017-08-26T22:22:52.799Z,17.42
2017-08-26T22:25:19.476Z,18.40
2017-08-26T22:27:46.175Z,19.55
2017-08-26T22:30:12.843Z,18.83
2017-08-26T22:32:39.521Z,19.48
2017-08-26T22:35:06.294Z,22.75
2017-08-26T22:37:33.042Z,20.35
2017-08-26T22:39:59.721Z,20.65
2017-08-26T22:42:26.414Z,20.10
2017-08-26T22:44:53.153Z,17.05
2017-08-26T22:47:19.837Z,21.83
2017-08-26T22:49:46.529Z,19.80
2017-08-26T22:52:13.284Z,17.33
2017-08-26T22:54:39.968Z,20.67
2017-08-26T22:57:06.667Z,19.42
2017-08-26T22:59:33.331Z,19.02
2017-08-26T23:02:00.016Z,20.30
2017-08-26T23:04:26.664Z,18.85
2017-08-26T23:06:53.355Z,17.58
2017-08-26T23:09:20.063Z,19.08
2017-08-26T23:11:46.716Z,20.42
2017-08-26T23:14:13.364Z,20.58
2017-08-26T23:16:40.065Z,21.92
2017-08-26T23:19:06.823Z,16.75
2017-08-26T23:21:33.486Z,18.05
2017-08-26T23:24:00.194Z,17.77
2017-08-26T23:26:26.933Z,19.48
2017-08-26T23:28:53.595Z,15.15
2017-08-26T23:31:20.299Z,19.65
2017-08-26T23:33:47.047Z,16.33
2017-08-26T23:36:13.808Z,18.10
2017-08-26T23:38:40.496Z,16.60
2017-08-26T23:41:07.173Z,16.75
2017-08-26T23:43:33.912Z,16.00
2017-08-26T23:46:00.658Z,17.37
2017-08-26T23:48:27.324Z,19.40
2017-08-26T23:50:53.982Z,20.67
2017-08-26T23:53:20.651Z,18.62
2017-08-26T23:55:47.312Z,20.12
2017-08-26T23:58:14.078Z,23.45
